Time;durP1;ratioP1;P1;durP2;ratioP2;P2;SDS_P1;SDS_P2;PMS_P1;PMS_P2;Temp;Humidity;BMP_temperature;BMP_pressure;BME280_temperature;BME280_humidity;BME280_pressure;Samples;Min_cycle;Max_cycle;Signal;HPM_P1;HPM_P2
2023/12/16 00:01:07;;;;;;;19.98;5.68;;;11.70;99.90;;;;;;7385547;19;20274;-72
2023/12/16 00:03:35;;;;;;;26.27;6.75;;;11.60;99.90;;;;;;7386750;19;20036;-72
2023/12/16 00:06:04;;;;;;;18.98;5.70;;;11.60;99.90;;;;;;7385874;19;20028;-72
2023/12/16 00:08:33;;;;;;;15.00;4.72;;;11.60;99.90;;;;;;7386648;19;20078;-72
2023/12/16 00:11:02;;;;;;;15.32;4.78;;;11.60;99.90;;;;;;7408722;19;20014;-71
2023/12/16 00:13:30;;;;;;;13.45;4.60;;;11.60;99.90;;;;;;7385639;19;20007;-73
2023/12/16 00:15:59;;;;;;;25.42;4.50;;;11.60;99.90;;;;;;7385728;19;20105;-72
2023/12/16 00:18:31;;;;;;;14.65;5.18;;;11.60;99.90;;;;;;7385028;19;20066;-72
2023/12/16 00:20:59;;;;;;;18.45;4.80;;;11.50;99.90;;;;;;7380786;19;20296;-72
2023/12/16 00:23:28;;;;;;;13.38;4.47;;;11.50;99.90;;;;;;7379408;19;20063;-72
2023/12/16 00:25:57;;;;;;;18.65;4.80;;;11.50;99.90;;;;;;7402050;19;20010;-72
2023/12/16 00:28:25;;;;;;;16.52;4.07;;;11.50;99.90;;;;;;7380361;19;20003;-72
2023/12/16 00:30:54;;;;;;;16.00;4.18;;;11.50;99.90;;;;;;7380857;19;20047;-72
2023/12/16 00:33:23;;;;;;;13.90;3.88;;;11.50;99.90;;;;;;7380887;19;20024;-72
2023/12/16 00:35:54;;;;;;;16.25;3.97;;;11.40;99.90;;;;;;7380606;19;20007;-72
2023/12/16 00:38:23;;;;;;;15.55;3.78;;;11.40;99.90;;;;;;7399443;19;20071;-72
2023/12/16 00:40:51;;;;;;;18.15;4.35;;;11.40;99.90;;;;;;7401656;19;20362;-72
2023/12/16 00:43:20;;;;;;;17.33;4.60;;;11.40;99.90;;;;;;7379710;19;20003;-72
2023/12/16 00:45:49;;;;;;;11.00;4.22;;;11.40;99.90;;;;;;7380580;19;20067;-72
2023/12/16 00:48:17;;;;;;;14.48;4.35;;;11.40;99.90;;;;;;7379967;19;20245;-72
2023/12/16 00:50:46;;;;;;;17.45;5.28;;;11.40;99.90;;;;;;7378243;19;20056;-72
2023/12/16 00:53:17;;;;;;;18.35;5.50;;;11.30;99.90;;;;;;7401392;19;20007;-72
2023/12/16 00:55:46;;;;;;;30.13;5.35;;;11.30;99.90;;;;;;7379874;19;20028;-72
2023/12/16 00:58:15;;;;;;;25.88;4.90;;;11.30;99.90;;;;;;7380252;19;20375;-70
2023/12/16 01:00:44;;;;;;;15.02;4.45;;;11.20;99.90;;;;;;7379839;19;20010;-71
2023/12/16 01:03:13;;;;;;;16.67;4.32;;;11.20;99.90;;;;;;7378843;19;20011;-71
2023/12/16 01:05:41;;;;;;;30.15;4.20;;;11.20;99.90;;;;;;7382970;19;20039;-72
2023/12/16 01:08:10;;;;;;;11.75;4.43;;;11.20;99.90;;;;;;7405272;19;20014;-72
2023/12/16 01:10:41;;;;;;;15.18;4.10;;;11.20;99.90;;;;;;7380823;19;20070;-72
2023/12/16 01:13:10;;;;;;;19.77;4.13;;;11.10;99.90;;;;;;7381567;19;20268;-72
2023/12/16 01:15:39;;;;;;;24.48;4.03;;;11.00;99.90;;;;;;7386947;19;20006;-72
2023/12/16 01:18:09;;;;;;;18.33;4.72;;;11.00;99.90;;;;;;7382229;19;20061;-72
2023/12/16 01:20:37;;;;;;;13.93;4.07;;;10.90;99.90;;;;;;7379451;19;20018;-72
2023/12/16 01:23:06;;;;;;;12.93;4.93;;;10.90;99.90;;;;;;7399425;19;20034;-72
2023/12/16 01:25:34;;;;;;;23.65;5.43;;;10.90;99.90;;;;;;7378156;19;20007;-72
2023/12/16 01:28:06;;;;;;;20.10;5.45;;;10.90;99.90;;;;;;7378302;19;20457;-73
2023/12/16 01:30:35;;;;;;;16.08;5.38;;;10.80;99.90;;;;;;7378589;19;20055;-73
2023/12/16 01:33:06;;;;;;;19.83;5.13;;;10.80;99.90;;;;;;7378753;19;20003;-73
2023/12/16 01:35:35;;;;;;;20.58;4.60;;;10.80;99.90;;;;;;7378603;19;20476;-72
2023/12/16 01:38:03;;;;;;;18.98;6.15;;;10.80;99.90;;;;;;7399777;19;20158;-72
2023/12/16 01:40:35;;;;;;;22.73;5.75;;;10.70;99.90;;;;;;7377932;19;20023;-72
2023/12/16 01:43:10;;;;;;;15.80;5.85;;;10.70;99.90;;;;;;7377364;19;20518;-72
2023/12/16 01:45:39;;;;;;;14.70;5.10;;;10.70;99.90;;;;;;7378447;19;20351;-72
2023/12/16 01:48:09;;;;;;;23.98;6.60;;;10.70;99.90;;;;;;7378268;19;20292;-73
2023/12/16 01:50:38;;;;;;;24.00;5.22;;;10.70;99.90;;;;;;7377713;19;20031;-73
2023/12/16 01:53:08;;;;;;;15.60;6.18;;;10.70;99.90;;;;;;7399775;19;20069;-73
2023/12/16 01:55:37;;;;;;;17.98;5.38;;;10.70;99.90;;;;;;7377604;19;20028;-73
2023/12/16 01:58:08;;;;;;;24.38;6.05;;;10.60;99.90;;;;;;7377890;19;20002;-72
2023/12/16 02:00:36;;;;;;;13.32;5.10;;;10.60;99.90;;;;;;7377995;19;20007;-73
2023/12/16 02:03:05;;;;;;;23.02;5.70;;;10.60;99.90;;;;;;7377606;19;20043;-72
2023/12/16 02:05:34;;;;;;;15.48;5.20;;;10.50;99.90;;;;;;7377695;19;20436;-72
2023/12/16 02:08:03;;;;;;;19.70;5.68;;;10.50;99.90;;;;;;7396983;19;20020;-73
2023/12/16 02:10:31;;;;;;;18.25;5.85;;;10.50;99.90;;;;;;7376850;19;20011;-72
2023/12/16 02:13:03;;;;;;;22.05;5.78;;;10.40;99.90;;;;;;7377110;19;20236;-72
2023/12/16 02:15:36;;;;;;;12.18;5.15;;;10.40;99.90;;;;;;7377878;19;20011;-72
2023/12/16 02:18:05;;;;;;;16.35;5.22;;;10.40;99.90;;;;;;7377299;19;20424;-73
2023/12/16 02:20:34;;;;;;;12.60;4.40;;;10.40;99.90;;;;;;7377379;19;20003;-73
2023/12/16 02:23:03;;;;;;;12.65;4.90;;;10.40;99.90;;;;;;7397714;19;20058;-73
2023/12/16 02:25:35;;;;;;;11.57;4.72;;;10.30;99.90;;;;;;7376743;19;19999;-72
2023/12/16 02:28:03;;;;;;;17.67;4.50;;;10.30;99.90;;;;;;7377122;19;20014;-73
2023/12/16 02:30:32;;;;;;;12.95;4.63;;;10.30;99.90;;;;;;7377262;19;20007;-73
2023/12/16 02:33:01;;;;;;;12.30;4.55;;;10.20;99.90;;;;;;7376929;19;20385;-73
2023/12/16 02:35:29;;;;;;;10.75;3.65;;;10.20;99.90;;;;;;7376844;19;20018;-72
2023/12/16 02:37:58;;;;;;;12.73;4.00;;;10.10;99.90;;;;;;7398166;19;20014;-72
2023/12/16 02:40:27;;;;;;;16.25;4.35;;;10.10;99.90;;;;;;7376333;19;20287;-72
2023/12/16 02:42:58;;;;;;;23.70;4.75;;;10.10;99.90;;;;;;7375873;19;20010;-72
2023/12/16 02:45:27;;;;;;;;;;;10.00;99.90;;;;;;7377739;19;20293;-72
2023/12/16 02:47:55;;;;;;;16.90;4.38;;;10.10;99.90;;;;;;7376690;19;20271;-71
2023/12/16 02:50:24;;;;;;;22.00;5.18;;;10.00;99.90;;;;;;7397568;19;20198;-73
2023/12/16 02:52:53;;;;;;;15.77;5.35;;;9.90;99.90;;;;;;7376133;19;20212;-72
2023/12/16 02:55:21;;;;;;;15.20;4.50;;;9.90;99.90;;;;;;7376189;19;20021;-72
2023/12/16 02:57:50;;;;;;;15.77;4.75;;;9.90;99.90;;;;;;7376614;19;20318;-72
2023/12/16 03:00:21;;;;;;;13.80;4.80;;;9.80;99.90;;;;;;7376593;19;20007;-71
2023/12/16 03:02:50;;;;;;;16.75;5.45;;;9.80;99.90;;;;;;7375918;19;20294;-72
2023/12/16 03:05:19;;;;;;;16.05;4.63;;;9.70;99.90;;;;;;7398032;19;20056;-72
2023/12/16 03:07:47;;;;;;;17.95;4.43;;;9.70;99.90;;;;;;7375491;19;20705;-72
2023/12/16 03:10:16;;;;;;;11.00;4.20;;;9.60;99.90;;;;;;7378866;19;20007;-72
2023/12/16 03:12:47;;;;;;;14.50;4.38;;;9.60;99.90;;;;;;7375723;19;20362;-72
2023/12/16 03:15:15;;;;;;;14.77;4.13;;;9.60;99.90;;;;;;7375868;19;20002;-72
2023/12/16 03:17:47;;;;;;;10.48;4.50;;;9.60;99.90;;;;;;7376786;19;20007;-72
2023/12/16 03:20:16;;;;;;;15.88;4.50;;;9.60;99.90;;;;;;7399571;19;20047;-72
2023/12/16 03:22:45;;;;;;;20.65;5.10;;;9.60;99.90;;;;;;7376427;19;20005;-72
2023/12/16 03:25:14;;;;;;;17.55;5.00;;;9.60;99.90;;;;;;7380342;19;20024;-72
2023/12/16 03:27:43;;;;;;;16.10;5.45;;;9.60;99.90;;;;;;7383685;19;20240;-72
2023/12/16 03:30:12;;;;;;;11.32;4.63;;;9.60;99.90;;;;;;7382890;19;20058;-72
2023/12/16 03:32:41;;;;;;;14.05;4.75;;;9.70;99.90;;;;;;7382949;19;20011;-72
2023/12/16 03:35:13;;;;;;;15.88;5.03;;;9.60;99.90;;;;;;7404700;19;20011;-72
2023/12/16 03:37:42;;;;;;;17.77;4.85;;;9.70;99.90;;;;;;7382069;19;20054;-72
2023/12/16 03:40:11;;;;;;;19.70;3.95;;;9.70;99.90;;;;;;7382030;19;20010;-72
2023/12/16 03:42:40;;;;;;;20.27;4.90;;;9.70;99.90;;;;;;7381758;19;20003;-72
2023/12/16 03:45:10;;;;;;;22.02;5.15;;;9.70;99.90;;;;;;7382150;19;20007;-72
2023/12/16 03:47:38;;;;;;;10.88;4.78;;;9.60;99.90;;;;;;7382087;19;20019;-73
2023/12/16 03:50:08;;;;;;;16.85;5.25;;;9.70;99.90;;;;;;7402732;19;20112;-73
2023/12/16 03:52:39;;;;;;;13.73;4.55;;;9.70;99.90;;;;;;7381447;19;20240;-73
2023/12/16 03:55:09;;;;;;;13.77;5.00;;;9.70;99.90;;;;;;7381625;19;20070;-73
2023/12/16 03:57:37;;;;;;;15.75;4.45;;;9.80;99.90;;;;;;7382303;19;20016;-72
2023/12/16 04:00:08;;;;;;;19.45;5.13;;;9.80;99.90;;;;;;7382325;19;20070;-71
2023/12/16 04:02:36;;;;;;;15.05;4.65;;;9.80;99.90;;;;;;7381365;19;20014;-72
2023/12/16 04:05:06;;;;;;;16.23;5.03;;;9.80;99.90;;;;;;7403042;19;20022;-73
2023/12/16 04:07:34;;;;;;;17.77;5.22;;;9.70;99.90;;;;;;7380511;19;20083;-72
2023/12/16 04:10:06;;;;;;;20.58;5.90;;;9.80;99.90;;;;;;7381180;19;20014;-72
2023/12/16 04:12:35;;;;;;;17.10;5.93;;;9.80;99.90;;;;;;7381235;19;20003;-73
2023/12/16 04:15:04;;;;;;;10.15;4.78;;;9.80;99.90;;;;;;7381425;19;20006;-73
2023/12/16 04:17:32;;;;;;;13.60;5.28;;;9.90;99.90;;;;;;7391548;19;20018;-72
2023/12/16 04:20:02;;;;;;;11.20;4.75;;;9.90;99.90;;;;;;7402471;19;20027;-72
2023/12/16 04:22:31;;;;;;;21.70;5.43;;;10.00;99.90;;;;;;7382876;19;20069;-72
2023/12/16 04:25:00;;;;;;;25.60;5.22;;;10.00;99.90;;;;;;7380722;19;20006;-72
2023/12/16 04:27:31;;;;;;;18.73;5.15;;;10.00;99.90;;;;;;7380812;19;20003;-72
2023/12/16 04:30:00;;;;;;;16.17;5.30;;;10.00;99.90;;;;;;7380606;19;20006;-72
2023/12/16 04:32:29;;;;;;;21.40;5.32;;;10.00;99.90;;;;;;7402086;19;20391;-72
2023/12/16 04:34:57;;;;;;;13.77;5.43;;;10.00;99.90;;;;;;7379697;19;20077;-71
2023/12/16 04:37:26;;;;;;;14.35;5.28;;;10.00;99.90;;;;;;7379940;19;20078;-72
2023/12/16 04:39:55;;;;;;;13.57;4.80;;;10.00;99.90;;;;;;7380397;19;20020;-72
2023/12/16 04:42:23;;;;;;;25.65;5.45;;;10.00;99.90;;;;;;7380328;19;20030;-72
2023/12/16 04:44:54;;;;;;;15.18;4.80;;;10.00;99.90;;;;;;7379202;19;20019;-72
2023/12/16 04:47:23;;;;;;;14.85;5.30;;;10.00;99.90;;;;;;7401878;19;20070;-72
2023/12/16 04:49:52;;;;;;;15.88;5.40;;;10.00;99.90;;;;;;7379234;19;20736;-73
2023/12/16 04:52:20;;;;;;;18.63;5.20;;;10.00;99.90;;;;;;7379720;19;20023;-72
2023/12/16 04:54:50;;;;;;;17.95;4.88;;;9.90;99.90;;;;;;7379907;19;20058;-72
2023/12/16 04:57:19;;;;;;;16.55;5.45;;;10.00;99.90;;;;;;7380046;19;20020;-72
2023/12/16 04:59:48;;;;;;;23.70;6.38;;;10.00;99.90;;;;;;7379859;19;20010;-71
2023/12/16 05:02:19;;;;;;;22.83;6.20;;;10.00;99.90;;;;;;7403358;19;20070;-72
2023/12/16 05:04:47;;;;;;;17.60;6.22;;;10.00;99.90;;;;;;7377440;19;19998;-72
2023/12/16 05:07:16;;;;;;;14.05;5.10;;;10.10;99.90;;;;;;7379147;19;20024;-71
2023/12/16 05:09:45;;;;;;;12.73;5.07;;;10.00;99.90;;;;;;7379627;19;20027;-72
2023/12/16 05:12:13;;;;;;;15.65;5.72;;;10.10;99.90;;;;;;7379295;19;20283;-72
2023/12/16 05:14:42;;;;;;;13.43;5.20;;;10.10;99.90;;;;;;7379617;19;20062;-72
2023/12/16 05:17:11;;;;;;;13.98;4.88;;;10.10;99.90;;;;;;7400697;19;20112;-72
2023/12/16 05:19:42;;;;;;;19.85;5.50;;;10.10;99.90;;;;;;7378704;19;20074;-72
2023/12/16 05:22:11;;;;;;;14.85;4.82;;;10.10;99.90;;;;;;7379236;19;20119;-72
2023/12/16 05:24:39;;;;;;;15.13;5.68;;;10.00;99.90;;;;;;7378245;19;20066;-72
2023/12/16 05:27:08;;;;;;;13.95;6.10;;;10.00;99.90;;;;;;7381863;19;20022;-72
2023/12/16 05:29:37;;;;;;;10.98;4.72;;;10.00;99.90;;;;;;7383774;19;20484;-72
2023/12/16 05:32:06;;;;;;;19.20;5.28;;;10.00;99.90;;;;;;7404977;19;19998;-72
2023/12/16 05:34:35;;;;;;;13.65;5.55;;;10.00;99.90;;;;;;7382396;19;20014;-72
2023/12/16 05:37:06;;;;;;;18.85;5.22;;;10.00;99.90;;;;;;7382938;19;20231;-72
2023/12/16 05:39:35;;;;;;;;;;;10.00;99.90;;;;;;7380464;19;20069;-72
2023/12/16 05:42:03;;;;;;;17.58;5.50;;;10.00;99.90;;;;;;7379033;19;19921;-72
2023/12/16 05:44:32;;;;;;;20.55;5.80;;;10.00;99.90;;;;;;7400076;19;20027;-72
2023/12/16 05:47:01;;;;;;;12.35;5.60;;;10.00;99.90;;;;;;7376698;19;20105;-72
2023/12/16 05:49:29;;;;;;;13.75;6.25;;;10.00;99.90;;;;;;7377647;19;20096;-72
2023/12/16 05:51:58;;;;;;;17.35;5.95;;;10.00;99.90;;;;;;7377082;19;20006;-72
2023/12/16 05:54:30;;;;;;;19.92;6.10;;;9.90;99.90;;;;;;7376696;19;20015;-72
2023/12/16 05:56:58;;;;;;;;;;;9.90;99.90;;;;;;7378825;19;20019;-73
2023/12/16 05:59:27;;;;;;;15.60;5.60;;;9.90;99.90;;;;;;7403369;19;19962;-72
2023/12/16 06:01:57;;;;;;;15.18;5.82;;;9.90;99.90;;;;;;7377301;19;20002;-73
2023/12/16 06:04:26;;;;;;;16.48;5.13;;;9.80;99.90;;;;;;7376403;19;20007;-72
2023/12/16 06:06:55;;;;;;;15.07;5.13;;;9.80;99.90;;;;;;7377052;19;20003;-73
2023/12/16 06:09:23;;;;;;;13.50;5.63;;;9.70;99.90;;;;;;7377621;19;20006;-73
2023/12/16 06:11:55;;;;;;;16.52;6.35;;;9.70;99.90;;;;;;7377455;19;20280;-72
2023/12/16 06:14:24;;;;;;;19.73;5.80;;;9.70;99.90;;;;;;7399246;19;20021;-71
2023/12/16 06:16:53;;;;;;;11.95;5.07;;;9.70;99.90;;;;;;7376830;19;20010;-72
2023/12/16 06:19:21;;;;;;;12.05;4.88;;;9.70;99.90;;;;;;7377080;19;20091;-73
2023/12/16 06:21:50;;;;;;;12.07;5.40;;;9.60;99.90;;;;;;7377104;19;20010;-72
2023/12/16 06:24:21;;;;;;;18.38;5.30;;;9.60;99.90;;;;;;7376889;19;20010;-73
2023/12/16 06:26:49;;;;;;;8.52;4.63;;;9.50;99.90;;;;;;7377423;19;20015;-73
2023/12/16 06:29:21;;;;;;;21.67;5.45;;;9.40;99.90;;;;;;7399033;19;20110;-73
2023/12/16 06:31:50;;;;;;;23.27;5.05;;;9.40;99.90;;;;;;7376642;19;20003;-73
2023/12/16 06:34:18;;;;;;;11.20;4.55;;;9.40;99.90;;;;;;7376465;19;20002;-73
2023/12/16 06:36:47;;;;;;;21.95;5.15;;;9.30;99.90;;;;;;7376423;19;20011;-72
2023/12/16 06:39:16;;;;;;;13.23;5.05;;;9.30;99.90;;;;;;7376518;19;20011;-72
2023/12/16 06:41:44;;;;;;;16.02;5.50;;;9.30;99.90;;;;;;7376774;19;20006;-72
2023/12/16 06:44:13;;;;;;;15.35;5.20;;;9.30;99.90;;;;;;7396301;19;20011;-72
2023/12/16 06:46:44;;;;;;;17.15;5.05;;;9.20;99.90;;;;;;7375749;19;20031;-72
2023/12/16 06:49:13;;;;;;;16.50;5.10;;;9.20;99.90;;;;;;7375938;19;20006;-71
2023/12/16 06:51:42;;;;;;;18.92;4.88;;;9.10;99.90;;;;;;7375414;19;20002;-72
2023/12/16 06:54:10;;;;;;;18.45;4.90;;;9.10;99.90;;;;;;7377239;19;20010;-72
2023/12/16 06:56:39;;;;;;;12.00;5.10;;;9.10;99.90;;;;;;7376787;19;20037;-72
2023/12/16 06:59:08;;;;;;;19.73;5.32;;;9.00;99.90;;;;;;7400845;19;20035;-73
2023/12/16 07:01:37;;;;;;;16.17;5.28;;;9.00;99.90;;;;;;7382838;19;20015;-73
2023/12/16 07:04:08;;;;;;;15.50;5.70;;;9.00;99.90;;;;;;7381484;19;20066;-73
2023/12/16 07:06:37;;;;;;;21.67;5.32;;;9.00;99.90;;;;;;7383688;19;20066;-73
2023/12/16 07:09:06;;;;;;;16.35;4.97;;;9.00;99.90;;;;;;7383492;19;20082;-72
2023/12/16 07:11:39;;;;;;;20.10;4.95;;;9.00;99.90;;;;;;7388006;19;20006;-72
2023/12/16 07:14:08;;;;;;;23.42;4.75;;;9.00;99.90;;;;;;7405255;19;20099;-72
2023/12/16 07:16:37;;;;;;;15.75;4.82;;;9.00;99.90;;;;;;7382475;19;20003;-72
2023/12/16 07:19:08;;;;;;;21.88;4.82;;;9.00;99.90;;;;;;7382781;19;20468;-73
2023/12/16 07:21:37;;;;;;;;;;;9.00;99.90;;;;;;7383511;19;20013;-73
2023/12/16 07:24:06;;;;;;;11.43;4.75;;;9.00;99.90;;;;;;7382318;19;19931;-73
2023/12/16 07:26:34;;;;;;;11.63;4.80;;;8.90;99.90;;;;;;7394645;19;20009;-72
2023/12/16 07:29:03;;;;;;;25.88;5.55;;;8.90;99.90;;;;;;7404842;19;20010;-73
2023/12/16 07:31:32;;;;;;;15.38;5.65;;;8.90;99.90;;;;;;7381678;19;20010;-71
2023/12/16 07:34:00;;;;;;;12.88;5.00;;;9.00;99.90;;;;;;7382076;19;20007;-72
2023/12/16 07:36:32;;;;;;;10.02;5.28;;;8.90;99.90;;;;;;7382695;19;20241;-72
2023/12/16 07:39:00;;;;;;;12.52;5.55;;;8.90;99.90;;;;;;7382907;19;20062;-72
2023/12/16 07:41:29;;;;;;;20.88;6.20;;;8.90;99.90;;;;;;7407256;19;20082;-72
2023/12/16 07:43:57;;;;;;;11.63;5.00;;;8.80;99.90;;;;;;7384905;19;20070;-73
2023/12/16 07:46:26;;;;;;;9.35;4.78;;;8.80;99.90;;;;;;7384372;19;20002;-73
2023/12/16 07:48:55;;;;;;;17.88;5.70;;;8.80;99.90;;;;;;7384945;19;20006;-72
2023/12/16 07:51:25;;;;;;;18.52;6.15;;;8.80;99.90;;;;;;7385296;19;20303;-73
2023/12/16 07:53:57;;;;;;;12.90;5.50;;;8.80;99.90;;;;;;7382614;19;20147;-73
2023/12/16 07:56:27;;;;;;;17.52;6.00;;;8.70;99.90;;;;;;7403456;19;20058;-72
2023/12/16 07:58:57;;;;;;;17.65;6.13;;;8.70;99.90;;;;;;7381287;19;20030;-72
2023/12/16 08:01:26;;;;;;;12.82;4.90;;;8.70;99.90;;;;;;7381165;19;19998;-72
2023/12/16 08:03:54;;;;;;;17.40;5.30;;;8.70;99.90;;;;;;7381307;19;20453;-72
2023/12/16 08:06:23;;;;;;;17.85;6.15;;;8.70;99.90;;;;;;7381482;19;20010;-72
2023/12/16 08:08:52;;;;;;;22.20;5.28;;;8.70;99.90;;;;;;7381844;19;20032;-72
2023/12/16 08:11:23;;;;;;;22.30;5.50;;;8.80;99.90;;;;;;7401122;19;20062;-72
2023/12/16 08:13:52;;;;;;;17.55;6.32;;;8.80;99.90;;;;;;7380430;19;20296;-72
2023/12/16 08:16:23;;;;;;;16.75;6.22;;;8.80;99.90;;;;;;7380621;19;20003;-73
2023/12/16 08:18:52;;;;;;;18.17;6.75;;;8.80;99.90;;;;;;7381262;19;20024;-73
2023/12/16 08:21:21;;;;;;;24.42;7.03;;;8.80;99.90;;;;;;7380921;19;20074;-72
2023/12/16 08:23:49;;;;;;;29.00;6.47;;;8.80;99.90;;;;;;7381600;19;20003;-72
2023/12/16 08:26:18;;;;;;;18.02;6.22;;;8.80;99.90;;;;;;7402842;19;20066;-73
2023/12/16 08:28:50;;;;;;;20.77;5.97;;;8.80;99.90;;;;;;7380528;19;20070;-71
2023/12/16 08:31:18;;;;;;;15.43;6.35;;;8.80;99.90;;;;;;7380540;19;20006;-71
2023/12/16 08:33:47;;;;;;;27.33;7.38;;;8.80;99.90;;;;;;7380655;19;20016;-72
2023/12/16 08:36:16;;;;;;;14.00;6.13;;;8.80;99.90;;;;;;7380778;19;20015;-72
2023/12/16 08:38:44;;;;;;;12.93;6.15;;;8.80;99.90;;;;;;7380486;19;20381;-72
2023/12/16 08:41:14;;;;;;;13.45;7.05;;;8.90;99.90;;;;;;7401462;19;20023;-72
2023/12/16 08:43:43;;;;;;;14.98;6.93;;;8.90;99.90;;;;;;7379443;19;20066;-73
2023/12/16 08:46:14;;;;;;;16.02;7.50;;;9.00;99.90;;;;;;7379241;19;20028;-73
2023/12/16 08:48:43;;;;;;;12.70;6.15;;;9.00;99.90;;;;;;7380549;19;20015;-72
2023/12/16 08:51:12;;;;;;;20.48;7.13;;;9.00;99.90;;;;;;7378778;19;20028;-73
2023/12/16 08:53:40;;;;;;;20.33;7.00;;;9.10;99.90;;;;;;7379522;19;20414;-72
2023/12/16 08:56:10;;;;;;;18.77;7.20;;;9.10;99.90;;;;;;7401450;19;20010;-73
2023/12/16 08:58:39;;;;;;;24.65;7.45;;;9.10;99.90;;;;;;7379513;19;20070;-72
2023/12/16 09:01:08;;;;;;;24.40;8.48;;;9.10;99.90;;;;;;7379710;19;20283;-72
2023/12/16 09:03:39;;;;;;;22.05;7.60;;;9.10;99.90;;;;;;7380101;19;20007;-72
2023/12/16 09:06:09;;;;;;;16.63;7.03;;;9.10;99.90;;;;;;7377996;19;20485;-71
2023/12/16 09:08:37;;;;;;;19.80;8.18;;;9.20;99.90;;;;;;7379492;19;20103;-72
2023/12/16 09:11:07;;;;;;;21.35;8.57;;;9.20;99.90;;;;;;7400366;19;20684;-73
2023/12/16 09:13:36;;;;;;;24.55;8.57;;;9.30;99.90;;;;;;7378708;19;20058;-73
2023/12/16 09:16:04;;;;;;;18.67;8.00;;;9.30;99.90;;;;;;7379429;19;20006;-72
2023/12/16 09:18:33;;;;;;;18.60;8.35;;;9.30;99.90;;;;;;7379441;19;20082;-72
2023/12/16 09:21:04;;;;;;;23.80;7.97;;;9.40;99.90;;;;;;7378751;19;20006;-72
2023/12/16 09:23:33;;;;;;;18.48;8.38;;;9.40;99.90;;;;;;7398306;19;20010;-71
2023/12/16 09:26:02;;;;;;;22.88;8.95;;;9.40;99.90;;;;;;7376851;19;20010;-71
2023/12/16 09:28:30;;;;;;;27.40;8.45;;;9.50;99.90;;;;;;7378673;19;20003;-72
2023/12/16 09:30:59;;;;;;;22.80;8.35;;;9.50;99.90;;;;;;7378527;19;20411;-73
2023/12/16 09:33:28;;;;;;;24.70;7.95;;;9.50;99.90;;;;;;7378836;19;20077;-72
2023/12/16 09:35:57;;;;;;;21.45;8.57;;;9.60;99.90;;;;;;7378716;19;20254;-72
2023/12/16 09:38:28;;;;;;;29.85;8.65;;;9.60;99.90;;;;;;7400464;19;20017;-72
2023/12/16 09:41:14;;;;;;;21.08;9.00;;;9.60;99.90;;;;;;7379497;19;20027;-72
2023/12/16 09:43:45;;;;;;;16.55;8.30;;;9.70;99.90;;;;;;7383431;19;20009;-73
2023/12/16 09:46:21;;;;;;;29.02;9.88;;;9.70;99.90;;;;;;7379909;19;20090;-73
2023/12/16 09:48:50;;;;;;;19.45;8.70;;;9.80;99.90;;;;;;7378634;19;20070;-72
2023/12/16 09:51:19;;;;;;;18.63;8.77;;;9.80;99.90;;;;;;7377533;19;20023;-73
2023/12/16 09:53:51;;;;;;;25.27;9.38;;;9.90;99.90;;;;;;7379312;19;20003;-72
2023/12/16 09:56:20;;;;;;;21.98;9.43;;;10.00;99.90;;;;;;7400992;19;20038;-72
2023/12/16 09:58:51;;;;;;;30.67;9.55;;;10.00;99.90;;;;;;7382658;19;20082;-72
2023/12/16 10:01:20;;;;;;;;;;;10.10;99.90;;;;;;7382950;19;20003;-73
2023/12/16 10:03:50;;;;;;;30.63;9.57;;;10.10;99.90;;;;;;7383233;19;20259;-73
2023/12/16 10:06:18;;;;;;;21.83;9.13;;;10.10;99.90;;;;;;7378397;19;20006;-73
2023/12/16 10:08:50;;;;;;;22.92;10.13;;;10.10;99.90;;;;;;7377969;19;20022;-72
2023/12/16 10:11:19;;;;;;;26.30;9.95;;;10.20;99.90;;;;;;7399014;19;20243;-72
2023/12/16 10:13:59;;;;;;;32.88;9.68;;;10.20;99.90;;;;;;7377118;19;20050;-71
2023/12/16 10:16:28;;;;;;;24.58;8.88;;;10.30;99.90;;;;;;7376858;19;20002;-73
2023/12/16 10:18:58;;;;;;;24.77;8.85;;;10.30;99.90;;;;;;7377171;19;20759;-72
2023/12/16 10:21:28;;;;;;;21.70;9.02;;;10.40;99.90;;;;;;7377337;19;20003;-71
2023/12/16 10:24:02;;;;;;;24.92;8.82;;;10.40;99.90;;;;;;7377890;19;20006;-72
2023/12/16 10:26:33;;;;;;;22.35;9.25;;;10.40;99.90;;;;;;7397521;19;20010;-72
2023/12/16 10:29:04;;;;;;;35.38;9.02;;;10.50;99.90;;;;;;7377041;19;20003;-73
2023/12/16 10:31:32;;;;;;;22.73;8.50;;;10.60;99.90;;;;;;7376907;19;20006;-73
2023/12/16 10:34:03;;;;;;;26.92;8.73;;;10.60;99.90;;;;;;7380175;19;20295;-71
2023/12/16 10:36:32;;;;;;;24.87;9.80;;;10.60;99.90;;;;;;7386757;19;20582;-71
2023/12/16 10:39:03;;;;;;;25.75;10.57;;;10.70;99.90;;;;;;7385305;19;20085;-71
2023/12/16 10:41:32;;;;;;;20.85;8.65;;;10.70;99.90;;;;;;7405848;19;20414;-72
2023/12/16 10:44:01;;;;;;;35.63;9.13;;;10.80;99.90;;;;;;7383991;19;20019;-70
2023/12/16 10:46:37;;;;;;;28.00;9.77;;;10.80;99.90;;;;;;7381527;19;20018;-73
2023/12/16 10:49:10;;;;;;;22.65;9.10;;;10.80;99.90;;;;;;7382740;19;20253;-74
2023/12/16 10:51:45;;;;;;;33.58;8.63;;;10.90;99.90;;;;;;7378876;19;20006;-73
2023/12/16 10:54:24;;;;;;;26.73;7.75;;;10.90;99.90;;;;;;7389089;19;20003;-74
2023/12/16 10:57:02;;;;;;;20.98;7.15;;;10.90;99.90;;;;;;7387706;19;20078;-73
2023/12/16 10:59:35;;;;;;;22.25;8.45;;;11.00;99.90;;;;;;7410889;19;20014;-73
2023/12/16 11:02:07;;;;;;;26.17;8.60;;;11.00;99.90;;;;;;7388694;19;20017;-73
2023/12/16 11:04:35;;;;;;;17.05;8.60;;;11.00;99.90;;;;;;7388044;19;20601;-73
2023/12/16 11:07:09;;;;;;;27.33;8.27;;;11.10;99.90;;;;;;7386796;19;20324;-74
2023/12/16 11:09:42;;;;;;;30.77;8.93;;;11.10;99.90;;;;;;7388544;19;20015;-73
2023/12/16 11:12:11;;;;;;;24.17;7.55;;;11.10;99.90;;;;;;7388938;19;20006;-74
2023/12/16 11:14:40;;;;;;;22.45;7.40;;;11.10;99.90;;;;;;7388560;19;20071;-74
2023/12/16 11:17:13;;;;;;;19.55;6.47;;;11.20;99.90;;;;;;7410361;19;20011;-74
2023/12/16 11:19:49;;;;;;;19.55;6.68;;;11.20;99.90;;;;;;7382286;19;20011;-74
2023/12/16 11:22:19;;;;;;;15.65;6.05;;;11.20;99.90;;;;;;7383981;19;20020;-77
2023/12/16 11:24:50;;;;;;;18.95;5.97;;;11.30;99.90;;;;;;7384603;19;20326;-74
2023/12/16 11:27:19;;;;;;;20.08;5.72;;;11.20;99.90;;;;;;7381838;19;20109;-74
2023/12/16 11:29:47;;;;;;;21.33;7.40;;;11.30;99.90;;;;;;7384789;19;20014;-75
2023/12/16 11:32:16;;;;;;;31.42;6.35;;;11.30;99.90;;;;;;7404616;19;20079;-73
2023/12/16 11:34:48;;;;;;;20.95;5.35;;;11.30;99.90;;;;;;7382003;19;20066;-73
2023/12/16 11:37:17;;;;;;;12.57;3.15;;;11.40;99.90;;;;;;7383690;19;20087;-73
2023/12/16 11:39:48;;;;;;;17.15;3.38;;;11.30;99.90;;;;;;7382674;19;20006;-74
2023/12/16 11:42:52;;;;;;;10.25;3.15;;;11.30;99.90;;;;;;7382500;19;20169;-73
2023/12/16 11:45:39;;;;;;;13.70;3.28;;;11.30;99.90;;;;;;7379891;19;20003;-73
2023/12/16 11:48:08;;;;;;;13.00;2.92;;;11.30;99.90;;;;;;7382165;19;20013;-73
2023/12/16 11:50:39;;;;;;;12.32;2.95;;;11.30;99.90;;;;;;7381053;19;20011;-73
2023/12/16 11:53:10;;;;;;;18.50;3.42;;;11.30;99.90;;;;;;7403623;19;20007;-73
2023/12/16 11:55:39;;;;;;;12.30;3.42;;;11.30;99.90;;;;;;7381696;19;20013;-74
2023/12/16 11:58:12;;;;;;;21.08;3.83;;;11.40;99.90;;;;;;7381731;19;20328;-73
2023/12/16 12:00:40;;;;;;;17.55;3.08;;;11.40;99.90;;;;;;7382221;19;20071;-73
2023/12/16 12:03:09;;;;;;;15.73;3.22;;;11.40;99.90;;;;;;7381916;19;20085;-73
2023/12/16 12:05:39;;;;;;;14.82;3.08;;;11.50;99.90;;;;;;7381473;19;20014;-73
2023/12/16 12:08:08;;;;;;;15.45;3.22;;;11.50;99.90;;;;;;7402995;19;20006;-73
2023/12/16 12:10:37;;;;;;;8.60;2.72;;;11.50;99.90;;;;;;7381242;19;20523;-74
2023/12/16 12:13:05;;;;;;;10.98;2.58;;;11.50;99.90;;;;;;7381524;19;20002;-73
2023/12/16 12:15:36;;;;;;;14.02;2.70;;;11.50;99.90;;;;;;7381315;19;20076;-73
2023/12/16 12:18:06;;;;;;;11.43;2.53;;;11.60;99.90;;;;;;7381560;19;20087;-73
2023/12/16 12:20:35;;;;;;;17.95;3.22;;;11.70;99.90;;;;;;7388208;19;20284;-73
2023/12/16 12:23:04;;;;;;;18.25;5.32;;;11.60;99.90;;;;;;7402968;19;20019;-74
2023/12/16 12:25:33;;;;;;;29.50;6.47;;;11.70;99.90;;;;;;7380510;19;20081;-74
2023/12/16 12:28:02;;;;;;;22.98;4.38;;;11.70;99.90;;;;;;7381300;19;20407;-73
2023/12/16 12:30:31;;;;;;;15.18;4.10;;;11.80;99.90;;;;;;7381385;19;20003;-73
2023/12/16 12:33:02;;;;;;;11.77;2.90;;;11.90;99.90;;;;;;7383584;19;20082;-73
2023/12/16 12:35:31;;;;;;;;;;;11.90;99.90;;;;;;7403197;19;20248;-72
2023/12/16 12:37:59;;;;;;;10.32;2.63;;;12.00;99.90;;;;;;7380465;19;19967;-74
2023/12/16 12:40:28;;;;;;;16.30;3.75;;;12.00;99.90;;;;;;7380304;19;19999;-74
2023/12/16 12:42:58;;;;;;;20.73;4.47;;;12.10;99.90;;;;;;7380382;19;20079;-74
2023/12/16 12:45:28;;;;;;;16.08;5.07;;;12.10;99.90;;;;;;7380177;19;20425;-74
2023/12/16 12:47:58;;;;;;;44.65;17.77;;;12.20;99.90;;;;;;7381127;19;20031;-73
2023/12/16 12:50:29;;;;;;;23.70;8.25;;;12.20;99.90;;;;;;7400913;19;20402;-74
2023/12/16 12:52:57;;;;;;;;;;;12.20;99.90;;;;;;7380403;19;20480;-73
2023/12/16 12:55:26;;;;;;;16.98;6.47;;;12.20;99.90;;;;;;7379905;19;19907;-73